Time;durP1;ratioP1;P1;durP2;ratioP2;P2;SDS_P1;SDS_P2;PMS_P1;PMS_P2;Temp;Humidity;BMP_temperature;BMP_pressure;BME280_temperature;BME280_humidity;BME280_pressure;Samples;Min_cycle;Max_cycle;Signal;HPM_P1;HPM_P2
2024/03/26 00:02:24;;;;;;;34.03;18.47;;;4.40;99.90;;;;;;5076808;28;20193;-77
2024/03/26 00:05:11;;;;;;;36.37;19.50;;;4.40;99.90;;;;;;5076554;28;20228;-77
2024/03/26 00:07:57;;;;;;;37.20;18.87;;;4.30;99.90;;;;;;5079196;28;20189;-77
2024/03/26 00:10:43;;;;;;;35.67;18.33;;;4.30;99.90;;;;;;5080818;28;20198;-77
2024/03/26 00:13:30;;;;;;;44.23;19.93;;;4.20;99.90;;;;;;5066796;28;20585;-78
2024/03/26 00:16:16;;;;;;;37.70;18.63;;;4.30;99.90;;;;;;5081823;28;20728;-78
2024/03/26 00:19:03;;;;;;;36.83;19.37;;;4.20;99.90;;;;;;5080171;28;20219;-77
2024/03/26 00:21:49;;;;;;;33.93;18.10;;;4.20;99.90;;;;;;5081140;28;20204;-77
2024/03/26 00:24:35;;;;;;;41.97;18.70;;;4.10;99.90;;;;;;5080524;28;20193;-78
2024/03/26 00:27:22;;;;;;;36.83;18.47;;;4.10;99.90;;;;;;5081018;28;20185;-77
2024/03/26 00:30:12;;;;;;;40.10;19.60;;;4.10;99.90;;;;;;5054212;28;20683;-77
2024/03/26 00:32:58;;;;;;;31.07;17.77;;;4.00;99.90;;;;;;5080247;28;20213;-77
2024/03/26 00:35:45;;;;;;;45.07;19.67;;;4.00;99.90;;;;;;5080773;28;20213;-77
2024/03/26 00:38:31;;;;;;;37.40;18.50;;;4.00;99.90;;;;;;5079504;28;20605;-77
2024/03/26 00:41:18;;;;;;;38.93;18.40;;;4.00;99.90;;;;;;5064031;28;20189;-77
2024/03/26 00:44:05;;;;;;;35.03;18.17;;;4.00;99.90;;;;;;5080007;28;20198;-77
2024/03/26 00:46:51;;;;;;;36.63;18.33;;;4.00;99.90;;;;;;5079996;28;20196;-77
2024/03/26 00:49:56;;;;;;;36.27;18.30;;;3.90;99.90;;;;;;5067105;28;20294;-77
2024/03/26 00:52:42;;;;;;;36.27;18.77;;;3.90;99.90;;;;;;5079873;28;20708;-77
2024/03/26 00:55:29;;;;;;;35.47;18.40;;;3.80;99.90;;;;;;5080471;28;20260;-76
2024/03/26 00:58:15;;;;;;;34.83;18.10;;;3.80;99.90;;;;;;5065608;28;20554;-77
2024/03/26 01:01:11;;;;;;;37.07;17.20;;;3.80;99.90;;;;;;5065958;28;20198;-76
2024/03/26 01:03:57;;;;;;;34.93;17.70;;;3.80;99.90;;;;;;5079940;28;20597;-76
2024/03/26 01:06:44;;;;;;;35.33;18.70;;;3.80;99.90;;;;;;5080306;28;20192;-77
2024/03/26 01:09:30;;;;;;;32.97;17.50;;;3.80;99.90;;;;;;5079111;28;20197;-76
2024/03/26 01:12:16;;;;;;;34.90;17.77;;;3.80;99.90;;;;;;5080141;28;20210;-77
2024/03/26 01:15:03;;;;;;;34.17;17.37;;;3.80;99.90;;;;;;5080701;28;20194;-77
2024/03/26 01:17:49;;;;;;;34.07;17.53;;;3.70;99.90;;;;;;5079776;28;20240;-76
2024/03/26 01:20:36;;;;;;;35.57;17.53;;;3.70;99.90;;;;;;5078029;28;20259;-76
2024/03/26 01:23:23;;;;;;;31.60;16.60;;;3.70;99.90;;;;;;5079884;28;20502;-77
2024/03/26 01:26:09;;;;;;;33.97;16.03;;;3.70;99.90;;;;;;5079352;28;20688;-76
2024/03/26 01:28:56;;;;;;;32.07;16.93;;;3.70;99.90;;;;;;5080323;28;20200;-76
2024/03/26 01:31:42;;;;;;;31.87;16.67;;;3.60;99.90;;;;;;5079135;28;20189;-76
2024/03/26 01:34:28;;;;;;;34.23;17.57;;;3.60;99.90;;;;;;5066466;28;20214;-76
2024/03/26 01:37:17;;;;;;;33.50;16.83;;;3.60;99.90;;;;;;5080060;28;20233;-76
2024/03/26 01:40:11;;;;;;;34.30;17.60;;;3.60;99.90;;;;;;5065118;28;20196;-76
2024/03/26 01:42:58;;;;;;;35.47;17.37;;;3.50;99.90;;;;;;5079159;28;20195;-76
2024/03/26 01:45:44;;;;;;;32.97;17.57;;;3.50;99.90;;;;;;5064850;28;20193;-76
2024/03/26 01:48:30;;;;;;;34.80;17.33;;;3.50;99.90;;;;;;5080008;28;20193;-76
2024/03/26 01:51:17;;;;;;;36.27;17.40;;;3.50;99.90;;;;;;5078818;28;20537;-77
2024/03/26 01:54:04;;;;;;;33.20;16.87;;;3.40;99.90;;;;;;5079347;28;20186;-77
2024/03/26 01:56:51;;;;;;;37.23;18.00;;;3.40;99.90;;;;;;5078747;28;20193;-76
2024/03/26 01:59:39;;;;;;;37.50;17.60;;;3.40;99.90;;;;;;5079935;28;20201;-76
2024/03/26 02:02:25;;;;;;;36.87;18.43;;;3.30;99.90;;;;;;5064993;28;20200;-76
2024/03/26 02:05:12;;;;;;;36.47;18.47;;;3.30;99.90;;;;;;5078512;28;20209;-76
2024/03/26 02:07:58;;;;;;;34.30;17.80;;;3.30;99.90;;;;;;5064746;28;20193;-75
2024/03/26 02:10:45;;;;;;;32.97;17.60;;;3.30;99.90;;;;;;5079069;28;20258;-76
2024/03/26 02:13:31;;;;;;;35.37;17.77;;;3.30;99.90;;;;;;5078287;28;20217;-76
2024/03/26 02:16:18;;;;;;;39.57;19.23;;;3.30;99.90;;;;;;5077564;28;20193;-76
2024/03/26 02:19:04;;;;;;;38.03;18.67;;;3.30;99.90;;;;;;5077647;28;20205;-75
2024/03/26 02:21:52;;;;;;;38.13;18.73;;;3.20;99.90;;;;;;5078261;28;20186;-76
2024/03/26 02:24:38;;;;;;;34.53;18.30;;;3.20;99.90;;;;;;5064404;28;20197;-76
2024/03/26 02:27:24;;;;;;;36.63;18.30;;;3.20;99.90;;;;;;5064658;28;20555;-77
2024/03/26 02:30:11;;;;;;;36.37;18.43;;;3.10;99.90;;;;;;5077759;28;20185;-76
2024/03/26 02:32:58;;;;;;;35.30;18.67;;;3.10;99.90;;;;;;5065267;28;20281;-77
2024/03/26 02:35:44;;;;;;;37.90;18.60;;;3.00;99.90;;;;;;5064027;28;20235;-76
2024/03/26 02:38:31;;;;;;;37.57;18.30;;;3.10;99.90;;;;;;5065092;28;20191;-76
2024/03/26 02:41:18;;;;;;;37.17;18.77;;;3.10;99.90;;;;;;5077853;28;20197;-76
2024/03/26 02:44:05;;;;;;;37.90;18.83;;;3.10;99.90;;;;;;5077253;28;20194;-76
2024/03/26 02:46:51;;;;;;;37.93;19.40;;;3.00;99.90;;;;;;5077778;28;20196;-77
2024/03/26 02:49:38;;;;;;;35.47;17.90;;;3.00;99.90;;;;;;5077574;28;20210;-76
2024/03/26 02:52:24;;;;;;;40.13;18.80;;;3.00;99.90;;;;;;5078650;28;20693;-77
2024/03/26 02:55:11;;;;;;;40.10;18.70;;;3.00;99.90;;;;;;5077533;28;20194;-77
2024/03/26 02:57:57;;;;;;;38.07;19.53;;;3.10;99.90;;;;;;5077555;28;20189;-76
2024/03/26 03:00:43;;;;;;;43.37;19.80;;;3.10;99.90;;;;;;5078119;28;20189;-76
2024/03/26 03:03:30;;;;;;;40.07;19.37;;;3.00;99.90;;;;;;5076816;28;20665;-75
2024/03/26 03:06:17;;;;;;;35.07;18.17;;;3.00;99.90;;;;;;5077309;28;20193;-76
2024/03/26 03:09:03;;;;;;;37.10;18.83;;;3.00;99.90;;;;;;5076800;28;20206;-76
2024/03/26 03:11:50;;;;;;;37.83;19.50;;;2.90;99.90;;;;;;5065234;28;20200;-76
2024/03/26 03:14:36;;;;;;;41.40;19.50;;;3.00;99.90;;;;;;5076768;28;20186;-76
2024/03/26 03:17:23;;;;;;;38.83;19.30;;;2.90;99.90;;;;;;5076509;28;20194;-76
2024/03/26 03:20:11;;;;;;;39.17;19.20;;;2.90;99.90;;;;;;5077034;28;20261;-76
2024/03/26 03:22:58;;;;;;;39.80;19.17;;;2.90;99.90;;;;;;5050713;28;20680;-76
2024/03/26 03:25:44;;;;;;;38.83;19.80;;;2.90;99.90;;;;;;5077156;28;20556;-77
2024/03/26 03:28:31;;;;;;;40.60;19.73;;;2.90;99.90;;;;;;5077623;28;20566;-76
2024/03/26 03:31:17;;;;;;;40.67;19.87;;;2.90;99.90;;;;;;5077613;28;20560;-76
2024/03/26 03:34:03;;;;;;;39.97;19.60;;;2.90;99.90;;;;;;5063607;28;20229;-76
2024/03/26 03:36:50;;;;;;;38.00;19.03;;;2.90;99.90;;;;;;5070030;28;20240;-76
2024/03/26 03:39:36;;;;;;;40.43;19.13;;;2.80;99.90;;;;;;5056414;28;20194;-76
2024/03/26 03:42:23;;;;;;;36.83;18.47;;;2.90;99.90;;;;;;5042376;28;20194;-76
2024/03/26 03:45:10;;;;;;;38.67;19.27;;;3.00;99.90;;;;;;5056302;28;20208;-77
2024/03/26 03:47:56;;;;;;;45.97;19.30;;;3.00;99.90;;;;;;5056454;28;20190;-77
2024/03/26 03:50:43;;;;;;;37.13;18.27;;;3.00;99.90;;;;;;5055907;28;20697;-77
2024/03/26 03:53:29;;;;;;;37.33;18.77;;;3.00;99.90;;;;;;5057222;28;20363;-76
2024/03/26 03:56:16;;;;;;;35.93;18.50;;;2.90;99.90;;;;;;5056247;28;20194;-76
2024/03/26 03:59:02;;;;;;;36.10;17.77;;;2.90;99.90;;;;;;5056897;28;20197;-75
2024/03/26 04:01:49;;;;;;;36.73;17.93;;;3.00;99.90;;;;;;5056669;28;20194;-75
2024/03/26 04:04:35;;;;;;;33.77;17.27;;;3.00;99.90;;;;;;5057078;28;20214;-76
2024/03/26 04:07:22;;;;;;;34.70;17.80;;;3.00;99.90;;;;;;5056535;28;20186;-76
2024/03/26 04:10:09;;;;;;;36.47;18.00;;;3.10;99.90;;;;;;5043772;28;20198;-76
2024/03/26 04:12:56;;;;;;;35.60;17.87;;;3.10;99.90;;;;;;5056391;28;20214;-78
2024/03/26 04:15:43;;;;;;;34.57;17.43;;;3.00;99.90;;;;;;5055475;28;20199;-77
2024/03/26 04:18:29;;;;;;;39.73;19.13;;;3.00;99.90;;;;;;5056273;28;20214;-77
2024/03/26 04:21:16;;;;;;;35.23;18.10;;;2.90;99.90;;;;;;5055736;28;20193;-77
2024/03/26 04:24:03;;;;;;;35.40;18.93;;;2.70;99.90;;;;;;5042015;28;20187;-77
2024/03/26 04:26:49;;;;;;;38.93;18.83;;;2.60;99.90;;;;;;5056485;28;20651;-77
2024/03/26 04:29:36;;;;;;;39.40;18.80;;;2.70;99.90;;;;;;5056436;28;20285;-77
2024/03/26 04:32:22;;;;;;;39.83;19.30;;;2.80;99.90;;;;;;5070204;28;20232;-77
2024/03/26 04:35:09;;;;;;;36.13;18.17;;;2.70;99.90;;;;;;5056247;28;20256;-77
2024/03/26 04:37:56;;;;;;;35.30;18.93;;;2.70;99.90;;;;;;5055934;28;20218;-78
2024/03/26 04:40:42;;;;;;;36.57;18.23;;;2.70;99.90;;;;;;5056258;28;20205;-77
2024/03/26 04:43:28;;;;;;;38.03;19.27;;;2.80;99.90;;;;;;5043512;28;20566;-76
2024/03/26 04:46:15;;;;;;;36.33;18.37;;;2.80;99.90;;;;;;5056167;28;20201;-77
2024/03/26 04:49:01;;;;;;;37.57;19.13;;;2.80;99.90;;;;;;5056078;28;20704;-77
2024/03/26 04:51:47;;;;;;;35.70;18.07;;;2.80;99.90;;;;;;5055109;28;20656;-76
2024/03/26 04:54:34;;;;;;;41.60;19.20;;;2.80;99.90;;;;;;5057713;28;20192;-76
2024/03/26 04:57:22;;;;;;;39.47;19.97;;;2.80;99.90;;;;;;5058570;28;20187;-75
2024/03/26 05:00:12;;;;;;;38.73;19.03;;;2.80;99.90;;;;;;5059724;28;20194;-78
2024/03/26 05:03:00;;;;;;;40.63;19.47;;;2.70;99.90;;;;;;5059622;28;20239;-77
2024/03/26 05:05:47;;;;;;;42.43;20.37;;;2.70;99.90;;;;;;5058976;28;20213;-77
2024/03/26 05:08:33;;;;;;;37.93;18.87;;;2.80;99.90;;;;;;5059033;28;20190;-77
2024/03/26 05:11:20;;;;;;;41.30;19.93;;;2.80;99.90;;;;;;5059636;28;20191;-76
2024/03/26 05:14:06;;;;;;;42.80;19.57;;;2.80;99.90;;;;;;5058849;28;20671;-77
2024/03/26 05:16:53;;;;;;;41.00;19.73;;;2.90;99.90;;;;;;5058859;28;20191;-77
2024/03/26 05:19:39;;;;;;;41.13;20.43;;;2.90;99.90;;;;;;5059363;28;20210;-77
2024/03/26 05:22:25;;;;;;;38.13;19.17;;;2.90;99.90;;;;;;5059369;28;20192;-77
2024/03/26 05:25:12;;;;;;;37.60;19.87;;;3.00;99.90;;;;;;5059338;28;20246;-77
2024/03/26 05:27:58;;;;;;;39.13;20.77;;;3.00;99.90;;;;;;5059603;28;20194;-77
2024/03/26 05:30:45;;;;;;;38.57;20.07;;;2.80;99.90;;;;;;5059192;28;20196;-77
2024/03/26 05:33:31;;;;;;;42.43;20.03;;;2.90;99.90;;;;;;5059106;28;20286;-77
2024/03/26 05:36:17;;;;;;;38.43;19.17;;;2.90;99.90;;;;;;5058543;28;20194;-77
2024/03/26 05:39:04;;;;;;;37.73;20.03;;;3.00;99.90;;;;;;5078391;28;20192;-77
2024/03/26 05:41:51;;;;;;;40.17;20.03;;;3.10;99.90;;;;;;5077864;28;20189;-77
2024/03/26 05:44:37;;;;;;;39.70;20.93;;;3.30;99.90;;;;;;5078493;28;20198;-77
2024/03/26 05:47:24;;;;;;;39.97;19.60;;;3.30;99.90;;;;;;5064449;28;20195;-77
2024/03/26 05:50:10;;;;;;;37.97;19.30;;;3.40;99.90;;;;;;5078902;28;20213;-77
2024/03/26 05:52:58;;;;;;;41.73;20.30;;;3.50;99.90;;;;;;5078293;28;20689;-77
2024/03/26 05:55:46;;;;;;;37.13;20.07;;;3.60;99.90;;;;;;5079249;28;20227;-77
2024/03/26 05:58:32;;;;;;;38.23;20.03;;;3.60;99.90;;;;;;5077844;28;20273;-77
2024/03/26 06:01:18;;;;;;;38.63;19.70;;;3.70;99.90;;;;;;5077694;28;20194;-77
2024/03/26 06:04:05;;;;;;;38.93;19.63;;;3.70;99.90;;;;;;5077815;28;20210;-77
2024/03/26 06:06:51;;;;;;;40.00;20.03;;;3.80;99.90;;;;;;5076929;28;20201;-78
2024/03/26 06:09:37;;;;;;;40.03;19.97;;;3.90;99.90;;;;;;5078093;28;20200;-76
2024/03/26 06:12:24;;;;;;;40.50;20.13;;;3.80;99.90;;;;;;5077719;28;20214;-76
2024/03/26 06:15:10;;;;;;;41.60;20.93;;;3.70;99.90;;;;;;5077847;28;20203;-76
2024/03/26 06:17:57;;;;;;;41.67;20.73;;;3.70;99.90;;;;;;5064596;28;20194;-77
2024/03/26 06:20:43;;;;;;;43.30;20.73;;;3.80;99.90;;;;;;5077299;28;20701;-77
2024/03/26 06:23:30;;;;;;;40.17;19.80;;;3.80;99.90;;;;;;5076992;28;20793;-78
2024/03/26 06:26:16;;;;;;;39.50;20.70;;;3.70;99.90;;;;;;5064045;28;20287;-76
2024/03/26 06:29:03;;;;;;;43.47;20.90;;;3.60;99.90;;;;;;5077614;28;20191;-76
2024/03/26 06:31:49;;;;;;;39.70;20.60;;;3.70;99.90;;;;;;5077508;28;20348;-78
2024/03/26 06:34:37;;;;;;;40.43;20.07;;;3.60;99.90;;;;;;5077146;28;20240;-77
2024/03/26 06:37:24;;;;;;;44.27;19.87;;;3.70;99.90;;;;;;5077176;28;20234;-76
2024/03/26 06:40:11;;;;;;;41.50;20.50;;;3.80;99.90;;;;;;5077554;28;20189;-76
2024/03/26 06:42:57;;;;;;;39.40;19.77;;;3.80;99.90;;;;;;5076652;28;20201;-77
2024/03/26 06:45:44;;;;;;;38.27;19.33;;;3.80;99.90;;;;;;5077035;28;20456;-76
2024/03/26 06:48:30;;;;;;;37.37;19.27;;;4.00;99.90;;;;;;5077082;28;20253;-77
2024/03/26 06:51:17;;;;;;;36.80;19.10;;;4.00;99.90;;;;;;5076876;28;20189;-77
2024/03/26 06:54:03;;;;;;;36.67;18.93;;;4.10;99.90;;;;;;5077050;28;20219;-79
2024/03/26 06:56:50;;;;;;;47.30;20.07;;;4.20;99.90;;;;;;5076801;28;20189;-78
2024/03/26 06:59:36;;;;;;;39.73;18.70;;;4.20;99.90;;;;;;5076825;28;20228;-78
2024/03/26 07:02:23;;;;;;;37.97;18.87;;;4.20;99.90;;;;;;5062779;28;20214;-77
2024/03/26 07:05:12;;;;;;;38.67;19.17;;;4.40;99.90;;;;;;5076564;28;20701;-78
2024/03/26 07:07:59;;;;;;;41.27;19.97;;;4.40;99.90;;;;;;5076768;28;20229;-79
2024/03/26 07:10:48;;;;;;;36.30;18.63;;;4.50;99.90;;;;;;5077150;28;20189;-77
2024/03/26 07:13:34;;;;;;;40.13;19.67;;;4.40;99.90;;;;;;5063440;28;20223;-79
2024/03/26 07:16:21;;;;;;;36.87;18.73;;;4.40;99.90;;;;;;5075920;28;20193;-79
2024/03/26 07:19:07;;;;;;;36.53;19.50;;;4.50;99.90;;;;;;5075118;28;20210;-79
2024/03/26 07:21:54;;;;;;;35.97;19.13;;;4.60;99.90;;;;;;5075815;28;20191;-78
2024/03/26 07:24:40;;;;;;;40.10;19.87;;;4.80;99.90;;;;;;5076311;28;20198;-79
2024/03/26 07:27:26;;;;;;;38.07;19.07;;;4.80;99.90;;;;;;5063277;28;20197;-79
2024/03/26 07:30:13;;;;;;;36.87;19.30;;;4.90;99.90;;;;;;5077423;28;20206;-79
2024/03/26 07:32:59;;;;;;;38.40;19.37;;;5.00;99.90;;;;;;5077351;28;20222;-79
2024/03/26 07:35:45;;;;;;;40.33;19.80;;;4.90;99.90;;;;;;5075426;28;20212;-78
2024/03/26 07:38:32;;;;;;;42.23;19.80;;;4.80;99.90;;;;;;5075585;28;20713;-79
2024/03/26 07:41:19;;;;;;;38.00;19.63;;;4.90;99.90;;;;;;5075559;28;20200;-78
2024/03/26 07:44:05;;;;;;;34.33;18.70;;;5.00;99.90;;;;;;5075550;28;20629;-78
2024/03/26 07:46:51;;;;;;;39.10;19.23;;;5.00;99.90;;;;;;5049678;28;20202;-78
2024/03/26 07:49:38;;;;;;;37.40;19.30;;;5.00;99.90;;;;;;5075442;28;20211;-79
2024/03/26 07:52:24;;;;;;;42.47;20.07;;;4.90;99.90;;;;;;5076090;28;20712;-79
2024/03/26 07:55:11;;;;;;;39.63;20.30;;;4.90;99.90;;;;;;5075910;28;20204;-79
2024/03/26 07:57:58;;;;;;;39.13;19.73;;;5.00;99.90;;;;;;5075219;28;20200;-78
2024/03/26 08:00:44;;;;;;;41.97;21.17;;;5.10;99.90;;;;;;5061577;28;20192;-78
2024/03/26 08:03:31;;;;;;;41.83;20.60;;;5.30;99.90;;;;;;5075432;28;20190;-78
2024/03/26 08:06:17;;;;;;;42.33;20.30;;;5.60;99.90;;;;;;5076470;28;20195;-79
2024/03/26 08:09:03;;;;;;;41.17;20.53;;;5.70;99.90;;;;;;5076016;28;20688;-79
2024/03/26 08:11:50;;;;;;;42.87;20.73;;;5.80;99.90;;;;;;5075767;28;20712;-79
2024/03/26 08:14:39;;;;;;;38.57;19.57;;;6.10;99.90;;;;;;5075823;28;20660;-79
2024/03/26 08:17:25;;;;;;;39.13;19.90;;;6.40;99.90;;;;;;5075802;28;20188;-78
2024/03/26 08:20:13;;;;;;;39.73;19.47;;;6.60;99.90;;;;;;5076278;28;20234;-78
2024/03/26 08:23:00;;;;;;;36.03;19.10;;;6.90;99.90;;;;;;5062436;28;20198;-79
2024/03/26 08:25:46;;;;;;;38.07;19.17;;;7.00;99.90;;;;;;5061719;28;20194;-79
2024/03/26 08:28:32;;;;;;;38.67;19.67;;;7.20;99.90;;;;;;5076502;28;20194;-79
2024/03/26 08:31:19;;;;;;;36.83;18.90;;;7.50;99.90;;;;;;5078878;28;20194;-79
2024/03/26 08:34:06;;;;;;;40.10;20.13;;;7.70;99.90;;;;;;5066019;28;20245;-79
2024/03/26 08:36:53;;;;;;;34.10;18.43;;;8.30;99.90;;;;;;5066620;28;20232;-79
2024/03/26 08:39:39;;;;;;;45.60;18.63;;;9.10;99.90;;;;;;5078820;28;20188;-79
2024/03/26 08:42:25;;;;;;;31.30;16.53;;;9.80;99.90;;;;;;5079229;28;20190;-79
2024/03/26 08:45:12;;;;;;;32.27;18.30;;;10.20;99.90;;;;;;5079709;28;20676;-78
2024/03/26 08:47:59;;;;;;;33.43;16.53;;;10.70;99.90;;;;;;5079359;28;20292;-79
2024/03/26 08:50:45;;;;;;;30.27;16.10;;;11.20;99.90;;;;;;5079153;28;20216;-79
2024/03/26 08:53:32;;;;;;;27.90;16.00;;;11.20;99.90;;;;;;5066504;28;20217;-79
2024/03/26 08:56:18;;;;;;;31.17;16.43;;;10.90;99.90;;;;;;5079240;28;20201;-79
2024/03/26 08:59:05;;;;;;;28.83;16.20;;;11.40;99.90;;;;;;5066008;28;20200;-79
2024/03/26 09:01:53;;;;;;;30.07;16.73;;;10.90;99.90;;;;;;5078496;28;20186;-79
2024/03/26 09:04:39;;;;;;;25.00;14.80;;;11.20;99.90;;;;;;5064824;28;20241;-79
2024/03/26 09:07:25;;;;;;;26.57;14.60;;;10.80;99.90;;;;;;5079178;28;20200;-79
2024/03/26 09:10:12;;;;;;;24.17;14.53;;;11.00;99.90;;;;;;5078853;28;20657;-80
2024/03/26 09:12:59;;;;;;;25.10;14.20;;;11.20;99.90;;;;;;5079294;28;20553;-80
2024/03/26 09:15:45;;;;;;;26.80;14.73;;;11.40;99.90;;;;;;5078897;28;20566;-79
2024/03/26 09:18:31;;;;;;;26.37;15.63;;;11.90;99.90;;;;;;5078749;28;20259;-79
2024/03/26 09:21:17;;;;;;;23.40;13.50;;;12.10;99.90;;;;;;5080289;28;20238;-79
2024/03/26 09:24:04;;;;;;;25.53;14.60;;;12.40;99.90;;;;;;5052282;28;20650;-79
2024/03/26 09:26:50;;;;;;;23.47;14.20;;;12.90;99.90;;;;;;5065448;28;20208;-80
2024/03/26 09:29:37;;;;;;;25.67;14.57;;;13.20;99.90;;;;;;5079865;28;20189;-80
2024/03/26 09:32:23;;;;;;;24.87;14.43;;;13.10;99.90;;;;;;5078606;28;20194;-80
2024/03/26 09:35:09;;;;;;;22.23;14.23;;;13.40;99.90;;;;;;5078049;28;20697;-80
2024/03/26 09:37:57;;;;;;;23.63;13.47;;;13.80;99.90;;;;;;5077746;28;20239;-81
2024/03/26 09:40:55;;;;;;;25.50;14.80;;;14.30;99.90;;;;;;5064840;28;20224;-83
2024/03/26 09:43:43;;;;;;;27.88;16.75;;;15.00;99.90;;;;;;5078405;28;20429;-82
2024/03/26 09:46:30;;;;;;;23.23;13.50;;;15.00;99.90;;;;;;5078309;28;20194;-83
2024/03/26 09:49:22;;;;;;;22.90;13.30;;;15.40;99.90;;;;;;5078741;28;20550;-82
2024/03/26 09:52:09;;;;;;;18.73;12.07;;;15.30;99.90;;;;;;5078761;28;20221;-83
2024/03/26 09:54:57;;;;;;;22.87;13.80;;;15.00;99.90;;;;;;5078808;28;20246;-80
2024/03/26 09:57:44;;;;;;;21.63;13.60;;;15.20;99.90;;;;;;5077979;28;20664;-79
2024/03/26 10:00:33;;;;;;;23.50;14.17;;;15.50;99.90;;;;;;5078280;28;20406;-83
2024/03/26 10:03:21;;;;;;;19.80;12.13;;;15.90;99.90;;;;;;5065906;28;20193;-82
2024/03/26 10:06:07;;;;;;;16.37;11.30;;;16.10;99.90;;;;;;5078661;28;20205;-82
2024/03/26 10:09:00;;;;;;;17.60;10.80;;;16.80;99.90;;;;;;5065181;28;20200;-81
2024/03/26 10:11:46;;;;;;;26.27;14.87;;;17.00;99.90;;;;;;5078483;28;20238;-81
2024/03/26 10:14:33;;;;;;;16.53;10.10;;;17.50;99.90;;;;;;5078937;28;20193;-81
2024/03/26 10:17:19;;;;;;;18.03;11.47;;;17.40;99.90;;;;;;5078923;28;20532;-81
2024/03/26 10:20:06;;;;;;;19.57;12.87;;;17.30;99.90;;;;;;5078282;28;20715;-81
2024/03/26 10:23:04;;;;;;;21.67;13.43;;;17.40;99.90;;;;;;5077738;28;20198;-82
2024/03/26 10:25:50;;;;;;;20.30;12.07;;;17.40;99.90;;;;;;5078236;28;20196;-81
2024/03/26 10:28:37;;;;;;;22.00;13.47;;;17.30;99.90;;;;;;5078623;28;20190;-82
2024/03/26 10:31:24;;;;;;;24.83;14.63;;;17.30;99.90;;;;;;5077980;28;20199;-81
2024/03/26 10:34:12;;;;;;;19.07;12.27;;;17.50;99.90;;;;;;5077778;28;20259;-80
2024/03/26 10:37:01;;;;;;;23.13;14.23;;;18.20;99.90;;;;;;5077160;28;20244;-81
2024/03/26 10:39:50;;;;;;;21.80;14.03;;;18.30;99.90;;;;;;5077194;28;20690;-80
2024/03/26 10:42:47;;;;;;;19.50;12.87;;;18.30;99.90;;;;;;5077149;28;20182;-81
2024/03/26 10:45:34;;;;;;;21.10;14.00;;;18.50;99.90;;;;;;5064551;28;20560;-81
2024/03/26 10:48:22;;;;;;;26.67;14.93;;;18.70;99.90;;;;;;5076651;28;20205;-79
2024/03/26 10:51:09;;;;;;;23.57;14.07;;;18.60;99.90;;;;;;5076913;28;20548;-79
2024/03/26 10:54:02;;;;;;;21.40;12.77;;;18.70;99.90;;;;;;5077035;28;20243;-80
2024/03/26 10:56:49;;;;;;;23.63;13.17;;;18.50;99.90;;;;;;5063328;28;20197;-81
2024/03/26 10:59:36;;;;;;;21.57;12.80;;;18.90;99.90;;;;;;5076692;28;20200;-80
2024/03/26 11:02:24;;;;;;;18.40;11.87;;;19.40;99.90;;;;;;5077315;28;20567;-79
2024/03/26 11:05:13;;;;;;;19.03;12.20;;;19.50;99.90;;;;;;5078383;28;20220;-82
2024/03/26 11:08:00;;;;;;;20.90;11.27;;;19.30;99.90;;;;;;5076087;28;20190;-79
2024/03/26 11:10:58;;;;;;;19.87;11.03;;;19.20;99.40;;;;;;5076271;28;20205;-79
2024/03/26 11:13:45;;;;;;;15.43;9.63;;;19.80;98.80;;;;;;5076391;28;20214;-80
2024/03/26 11:16:39;;;;;;;13.80;8.47;;;19.80;95.90;;;;;;5076191;28;20197;-80
2024/03/26 11:19:28;;;;;;;13.87;9.07;;;20.30;94.40;;;;;;5063781;28;20217;-79
2024/03/26 11:22:14;;;;;;;12.13;8.37;;;20.50;93.20;;;;;;5077113;28;20194;-78
2024/03/26 11:25:04;;;;;;;14.47;8.80;;;20.60;93.10;;;;;;5076271;28;20565;-82
2024/03/26 11:27:52;;;;;;;11.90;8.70;;;20.90;92.30;;;;;;5077815;28;20491;-81
2024/03/26 11:30:39;;;;;;;11.37;7.90;;;21.20;90.70;;;;;;5076178;28;20200;-82
2024/03/26 11:33:32;;;;;;;12.27;7.87;;;21.20;87.30;;;;;;5076726;28;20564;-80
2024/03/26 11:36:19;;;;;;;11.93;8.37;;;21.10;84.80;;;;;;5077147;28;20230;-80
2024/03/26 11:39:06;;;;;;;13.67;8.30;;;20.80;84.90;;;;;;5076720;28;20253;-81
2024/03/26 11:41:54;;;;;;;12.03;8.03;;;21.70;83.80;;;;;;5062371;28;20197;-81
2024/03/26 11:44:40;;;;;;;12.80;7.93;;;22.30;80.50;;;;;;5076782;28;20266;-81
2024/03/26 11:47:27;;;;;;;12.82;8.00;;;23.00;76.00;;;;;;5077281;28;20182;-81
2024/03/26 11:50:13;;;;;;;10.68;7.00;;;23.00;75.10;;;;;;5075191;28;20236;-82
2024/03/26 11:53:03;;;;;;;10.18;6.97;;;23.80;71.40;;;;;;5077640;28;20221;-82
2024/03/26 11:55:50;;;;;;;10.10;7.18;;;24.00;67.30;;;;;;5076701;28;20190;-79
2024/03/26 11:58:37;;;;;;;10.45;7.20;;;24.00;67.80;;;;;;5076035;28;20662;-80
2024/03/26 12:01:24;;;;;;;11.13;7.55;;;24.30;66.90;;;;;;5076539;28;20193;-80
2024/03/26 12:04:10;;;;;;;14.90;9.77;;;23.90;66.00;;;;;;5076142;28;20221;-85
2024/03/26 12:06:57;;;;;;;22.27;15.25;;;24.40;67.30;;;;;;5076023;28;20196;-83
2024/03/26 12:09:44;;;;;;;10.88;7.18;;;24.60;65.20;;;;;;5075647;28;20227;-78
2024/03/26 12:12:36;;;;;;;9.68;6.80;;;24.30;63.60;;;;;;5076351;28;20197;-79
2024/03/26 12:15:22;;;;;;;11.30;7.05;;;23.30;65.80;;;;;;5075100;28;20181;-79
2024/03/26 12:18:09;;;;;;;11.05;7.45;;;23.00;66.30;;;;;;5075987;28;20189;-79
2024/03/26 12:20:56;;;;;;;12.55;7.13;;;23.20;66.50;;;;;;5075775;28;20209;-78
2024/03/26 12:23:42;;;;;;;11.23;7.43;;;21.90;67.80;;;;;;5075746;28;20574;-78
2024/03/26 12:26:29;;;;;;;9.23;6.60;;;20.20;72.00;;;;;;5075851;28;20197;-78
2024/03/26 12:29:15;;;;;;;8.07;6.43;;;19.20;72.90;;;;;;5076137;28;20563;-77
2024/03/26 12:32:04;;;;;;;10.60;6.43;;;18.40;76.70;;;;;;5062512;28;20189;-76
2024/03/26 12:34:50;;;;;;;8.43;6.00;;;17.70;78.50;;;;;;5075522;28;20331;-77
2024/03/26 12:37:39;;;;;;;9.33;5.90;;;17.40;80.80;;;;;;5076077;28;20240;-78
2024/03/26 12:40:25;;;;;;;8.00;5.20;;;16.90;81.00;;;;;;5076047;28;20189;-77
2024/03/26 12:43:11;;;;;;;6.87;5.03;;;17.90;80.60;;;;;;5075526;28;20233;-77
2024/03/26 12:45:58;;;;;;;5.93;4.57;;;19.20;77.70;;;;;;5076054;28;20676;-78
2024/03/26 12:48:44;;;;;;;6.23;5.13;;;18.70;75.70;;;;;;5075392;28;20212;-77
2024/03/26 12:51:32;;;;;;;8.50;4.90;;;17.80;77.50;;;;;;5061693;28;20200;-77
2024/03/26 12:54:37;;;;;;;9.60;5.27;;;18.90;77.90;;;;;;5076267;28;20313;-77
2024/03/26 12:57:23;;;;;;;8.10;5.00;;;19.40;74.40;;;;;;5075967;28;20656;-77
2024/03/26 13:00:22;;;;;;;7.50;5.30;;;19.30;74.60;;;;;;5075516;28;20194;-78
2024/03/26 13:03:12;;;;;;;9.07;5.20;;;20.60;74.00;;;;;;5075869;28;20247;-78
2024/03/26 13:05:58;;;;;;;7.63;5.70;;;21.70;72.50;;;;;;5075209;28;20193;-77
2024/03/26 13:08:44;;;;;;;8.23;5.60;;;22.00;68.90;;;;;;5077312;28;20201;-77
2024/03/26 13:11:49;;;;;;;6.77;4.90;;;22.30;68.80;;;;;;5075902;28;20337;-78
2024/03/26 13:18:17;;;;;;;6.87;4.67;;;20.80;70.30;;;;;;5094025;28;20630;-78
2024/03/26 13:21:04;;;;;;;6.83;4.57;;;20.70;71.90;;;;;;5078513;28;20192;-78
2024/03/26 13:23:51;;;;;;;7.43;4.50;;;21.40;70.70;;;;;;5078575;28;20200;-77
2024/03/26 13:26:37;;;;;;;5.90;5.03;;;21.50;69.30;;;;;;5065889;28;20189;-77
2024/03/26 13:29:42;;;;;;;9.20;5.20;;;20.90;68.70;;;;;;5078660;28;20193;-77
2024/03/26 13:32:29;;;;;;;8.43;5.00;;;19.80;71.70;;;;;;5065814;28;20199;-77
2024/03/26 13:35:58;;;;;;;7.37;4.93;;;19.20;73.10;;;;;;5078333;28;20215;-77
2024/03/26 13:38:45;;;;;;;6.87;4.80;;;19.10;74.40;;;;;;5064728;28;20199;-76
2024/03/26 13:41:37;;;;;;;6.67;4.60;;;18.90;75.60;;;;;;5078253;28;20196;-77
2024/03/26 13:44:46;;;;;;;8.57;5.13;;;18.50;76.50;;;;;;5065089;28;20658;-77
2024/03/26 13:47:32;;;;;;;7.93;5.47;;;18.40;77.60;;;;;;5078695;28;20564;-77
2024/03/26 13:50:20;;;;;;;6.50;5.03;;;18.40;76.30;;;;;;5078075;28;20228;-77
2024/03/26 13:53:07;;;;;;;7.63;5.10;;;18.60;78.10;;;;;;5076937;28;20673;-77
2024/03/26 13:55:53;;;;;;;6.83;4.60;;;18.60;77.10;;;;;;5078049;28;20197;-78
2024/03/26 13:58:40;;;;;;;8.60;4.60;;;18.30;77.30;;;;;;5063657;28;20576;-78
2024/03/26 14:12:44;;;;;;;6.40;3.50;;;18.70;75.20;;;;;;5092993;28;20213;-77
2024/03/26 14:15:56;;;;;;;5.90;3.67;;;18.40;75.10;;;;;;5077391;28;20198;-77
2024/03/26 14:18:43;;;;;;;8.80;4.10;;;18.50;73.70;;;;;;5078225;28;20221;-77
2024/03/26 14:21:30;;;;;;;10.73;3.83;;;18.70;74.10;;;;;;5078868;28;20208;-77
2024/03/26 14:24:16;;;;;;;4.70;3.13;;;18.70;73.70;;;;;;5078627;28;20194;-76
2024/03/26 14:27:03;;;;;;;4.17;3.10;;;18.30;73.40;;;;;;5064430;28;20195;-75
2024/03/26 14:29:55;;;;;;;4.27;2.87;;;17.90;74.60;;;;;;5063330;28;20186;-75
2024/03/26 14:36:09;;;;;;;3.40;2.50;;;17.30;74.20;;;;;;5077254;28;20200;-76
2024/03/26 14:38:55;;;;;;;3.20;2.40;;;17.20;74.10;;;;;;5064614;28;20186;-75